sensor_id;sensor_type;location;lat;lon;timestamp;temperature;humidity
69082;DHT22;69029;51.986;5.760;2023-07-13T00:02:16;21.10;65.30
69082;DHT22;69029;51.986;5.760;2023-07-13T00:04:42;21.00;63.80
69082;DHT22;69029;51.986;5.760;2023-07-13T00:07:08;21.00;63.60
69082;DHT22;69029;51.986;5.760;2023-07-13T00:09:37;21.00;64.30
69082;DHT22;69029;51.986;5.760;2023-07-13T00:12:03;21.00;64.80
69082;DHT22;69029;51.986;5.760;2023-07-13T00:14:29;21.00;62.90
69082;DHT22;69029;51.986;5.760;2023-07-13T00:16:55;21.00;65.10
69082;DHT22;69029;51.986;5.760;2023-07-13T00:19:21;21.00;65.40
69082;DHT22;69029;51.986;5.760;2023-07-13T00:21:47;21.00;64.10
69082;DHT22;69029;51.986;5.760;2023-07-13T00:24:15;20.90;66.50
69082;DHT22;69029;51.986;5.760;2023-07-13T00:26:42;20.90;63.60
69082;DHT22;69029;51.986;5.760;2023-07-13T00:29:13;20.90;64.70
69082;DHT22;69029;51.986;5.760;2023-07-13T00:31:39;20.90;64.40
69082;DHT22;69029;51.986;5.760;2023-07-13T00:34:05;20.90;65.30
69082;DHT22;69029;51.986;5.760;2023-07-13T00:36:31;20.80;64.00
69082;DHT22;69029;51.986;5.760;2023-07-13T00:38:57;20.80;63.80
69082;DHT22;69029;51.986;5.760;2023-07-13T00:41:23;20.80;63.90
69082;DHT22;69029;51.986;5.760;2023-07-13T00:43:48;20.80;64.30
69082;DHT22;69029;51.986;5.760;2023-07-13T00:46:18;20.80;65.30
69082;DHT22;69029;51.986;5.760;2023-07-13T00:48:46;20.80;64.70
69082;DHT22;69029;51.986;5.760;2023-07-13T00:51:13;20.80;64.80
69082;DHT22;69029;51.986;5.760;2023-07-13T00:53:39;20.80;63.90
69082;DHT22;69029;51.986;5.760;2023-07-13T00:56:06;20.70;62.50
69082;DHT22;69029;51.986;5.760;2023-07-13T00:58:33;20.70;63.70
69082;DHT22;69029;51.986;5.760;2023-07-13T01:01:00;20.60;63.80
69082;DHT22;69029;51.986;5.760;2023-07-13T01:03:26;20.60;64.30
69082;DHT22;69029;51.986;5.760;2023-07-13T01:05:52;20.60;63.50
69082;DHT22;69029;51.986;5.760;2023-07-13T01:08:20;20.60;64.90
69082;DHT22;69029;51.986;5.760;2023-07-13T01:10:54;20.50;64.40
69082;DHT22;69029;51.986;5.760;2023-07-13T01:13:20;20.50;64.40
69082;DHT22;69029;51.986;5.760;2023-07-13T01:15:48;20.50;62.70
69082;DHT22;69029;51.986;5.760;2023-07-13T01:18:21;20.50;64.70
69082;DHT22;69029;51.986;5.760;2023-07-13T01:21:05;20.50;65.20
69082;DHT22;69029;51.986;5.760;2023-07-13T01:23:32;20.40;65.90
69082;DHT22;69029;51.986;5.760;2023-07-13T01:25:58;20.40;64.60
69082;DHT22;69029;51.986;5.760;2023-07-13T01:28:25;20.30;64.70
69082;DHT22;69029;51.986;5.760;2023-07-13T01:30:53;20.30;65.40
69082;DHT22;69029;51.986;5.760;2023-07-13T01:33:19;20.30;65.80
69082;DHT22;69029;51.986;5.760;2023-07-13T01:35:46;20.30;66.40
69082;DHT22;69029;51.986;5.760;2023-07-13T01:38:15;20.30;66.20
69082;DHT22;69029;51.986;5.760;2023-07-13T01:40:41;20.30;65.90
69082;DHT22;69029;51.986;5.760;2023-07-13T01:43:07;20.30;68.20
69082;DHT22;69029;51.986;5.760;2023-07-13T01:45:33;20.20;65.50
69082;DHT22;69029;51.986;5.760;2023-07-13T01:47:59;20.20;66.70
69082;DHT22;69029;51.986;5.760;2023-07-13T01:50:27;20.20;67.00
69082;DHT22;69029;51.986;5.760;2023-07-13T01:52:53;20.20;68.60
69082;DHT22;69029;51.986;5.760;2023-07-13T01:55:19;20.20;70.10
69082;DHT22;69029;51.986;5.760;2023-07-13T01:57:45;20.20;67.50
69082;DHT22;69029;51.986;5.760;2023-07-13T02:00:12;20.20;66.80
69082;DHT22;69029;51.986;5.760;2023-07-13T02:02:38;20.10;66.80
69082;DHT22;69029;51.986;5.760;2023-07-13T02:05:05;20.20;69.30
69082;DHT22;69029;51.986;5.760;2023-07-13T02:07:31;20.20;69.60
69082;DHT22;69029;51.986;5.760;2023-07-13T02:09:57;20.10;69.40
69082;DHT22;69029;51.986;5.760;2023-07-13T02:12:23;20.10;67.70
69082;DHT22;69029;51.986;5.760;2023-07-13T02:14:49;20.10;69.90
69082;DHT22;69029;51.986;5.760;2023-07-13T02:17:15;20.10;68.70
69082;DHT22;69029;51.986;5.760;2023-07-13T02:19:41;20.10;69.20
69082;DHT22;69029;51.986;5.760;2023-07-13T02:22:06;20.00;68.10
69082;DHT22;69029;51.986;5.760;2023-07-13T02:24:32;20.00;67.50
69082;DHT22;69029;51.986;5.760;2023-07-13T02:26:58;20.00;67.80
69082;DHT22;69029;51.986;5.760;2023-07-13T02:29:25;20.00;68.10
69082;DHT22;69029;51.986;5.760;2023-07-13T02:31:51;20.00;68.40
69082;DHT22;69029;51.986;5.760;2023-07-13T02:34:17;20.00;69.30
69082;DHT22;69029;51.986;5.760;2023-07-13T02:36:42;20.00;71.00
69082;DHT22;69029;51.986;5.760;2023-07-13T02:39:09;20.00;68.70
69082;DHT22;69029;51.986;5.760;2023-07-13T02:41:36;20.00;69.00
69082;DHT22;69029;51.986;5.760;2023-07-13T02:44:02;19.90;69.60
69082;DHT22;69029;51.986;5.760;2023-07-13T02:46:33;19.90;68.40
69082;DHT22;69029;51.986;5.760;2023-07-13T02:48:58;19.90;69.10
69082;DHT22;69029;51.986;5.760;2023-07-13T02:51:25;19.70;71.10
69082;DHT22;69029;51.986;5.760;2023-07-13T02:53:50;19.80;73.30
69082;DHT22;69029;51.986;5.760;2023-07-13T02:56:16;19.80;68.70
69082;DHT22;69029;51.986;5.760;2023-07-13T02:58:42;19.80;72.00
69082;DHT22;69029;51.986;5.760;2023-07-13T03:01:09;19.80;72.20
69082;DHT22;69029;51.986;5.760;2023-07-13T03:03:35;19.70;70.70
69082;DHT22;69029;51.986;5.760;2023-07-13T03:06:02;19.70;71.60
69082;DHT22;69029;51.986;5.760;2023-07-13T03:08:29;19.70;69.30
69082;DHT22;69029;51.986;5.760;2023-07-13T03:11:24;19.70;70.00
69082;DHT22;69029;51.986;5.760;2023-07-13T03:13:49;19.70;69.60
69082;DHT22;69029;51.986;5.760;2023-07-13T03:16:16;19.70;71.90
69082;DHT22;69029;51.986;5.760;2023-07-13T03:18:41;19.70;72.30
69082;DHT22;69029;51.986;5.760;2023-07-13T03:21:12;19.70;70.60
69082;DHT22;69029;51.986;5.760;2023-07-13T03:23:38;19.70;72.20
69082;DHT22;69029;51.986;5.760;2023-07-13T03:26:08;19.60;75.30
69082;DHT22;69029;51.986;5.760;2023-07-13T03:28:34;19.60;72.90
69082;DHT22;69029;51.986;5.760;2023-07-13T03:31:02;19.60;71.60
69082;DHT22;69029;51.986;5.760;2023-07-13T03:33:28;19.60;71.20
69082;DHT22;69029;51.986;5.760;2023-07-13T03:35:54;19.50;73.40
69082;DHT22;69029;51.986;5.760;2023-07-13T03:38:20;19.50;74.20
69082;DHT22;69029;51.986;5.760;2023-07-13T03:40:45;19.60;73.30
69082;DHT22;69029;51.986;5.760;2023-07-13T03:43:11;19.60;71.70
69082;DHT22;69029;51.986;5.760;2023-07-13T03:45:39;19.50;73.00
69082;DHT22;69029;51.986;5.760;2023-07-13T03:48:05;19.50;72.60
69082;DHT22;69029;51.986;5.760;2023-07-13T03:50:31;19.60;71.30
69082;DHT22;69029;51.986;5.760;2023-07-13T03:52:58;19.50;73.40
69082;DHT22;69029;51.986;5.760;2023-07-13T03:55:24;19.50;72.60
69082;DHT22;69029;51.986;5.760;2023-07-13T03:57:58;19.50;74.50
69082;DHT22;69029;51.986;5.760;2023-07-13T04:00:24;19.50;72.60
69082;DHT22;69029;51.986;5.760;2023-07-13T04:02:50;19.50;75.90
69082;DHT22;69029;51.986;5.760;2023-07-13T04:05:16;19.50;73.40
69082;DHT22;69029;51.986;5.760;2023-07-13T04:07:42;19.50;76.00
69082;DHT22;69029;51.986;5.760;2023-07-13T04:10:08;19.50;75.60
69082;DHT22;69029;51.986;5.760;2023-07-13T04:12:34;19.50;75.70
69082;DHT22;69029;51.986;5.760;2023-07-13T04:15:00;19.50;77.50
69082;DHT22;69029;51.986;5.760;2023-07-13T04:17:26;19.40;76.90
69082;DHT22;69029;51.986;5.760;2023-07-13T04:19:51;19.40;77.50
69082;DHT22;69029;51.986;5.760;2023-07-13T04:22:17;19.50;77.90
69082;DHT22;69029;51.986;5.760;2023-07-13T04:24:43;19.50;76.40
69082;DHT22;69029;51.986;5.760;2023-07-13T04:27:09;19.50;74.70
69082;DHT22;69029;51.986;5.760;2023-07-13T04:29:35;19.50;79.30
69082;DHT22;69029;51.986;5.760;2023-07-13T04:32:00;19.50;78.10
69082;DHT22;69029;51.986;5.760;2023-07-13T04:34:26;19.50;76.60
69082;DHT22;69029;51.986;5.760;2023-07-13T04:36:52;19.50;76.20
69082;DHT22;69029;51.986;5.760;2023-07-13T04:39:17;19.50;79.20
69082;DHT22;69029;51.986;5.760;2023-07-13T04:41:43;19.50;81.40
69082;DHT22;69029;51.986;5.760;2023-07-13T04:44:09;19.60;81.80
69082;DHT22;69029;51.986;5.760;2023-07-13T04:46:34;19.60;81.60
69082;DHT22;69029;51.986;5.760;2023-07-13T04:49:00;19.50;86.70
69082;DHT22;69029;51.986;5.760;2023-07-13T04:51:26;19.40;80.00
69082;DHT22;69029;51.986;5.760;2023-07-13T04:53:52;19.50;86.90
69082;DHT22;69029;51.986;5.760;2023-07-13T04:56:20;19.50;85.30
69082;DHT22;69029;51.986;5.760;2023-07-13T04:58:46;19.60;84.60
69082;DHT22;69029;51.986;5.760;2023-07-13T05:01:12;19.50;88.00
69082;DHT22;69029;51.986;5.760;2023-07-13T05:03:39;19.60;85.50
69082;DHT22;69029;51.986;5.760;2023-07-13T05:06:06;19.60;87.10
69082;DHT22;69029;51.986;5.760;2023-07-13T05:08:32;19.70;84.90
69082;DHT22;69029;51.986;5.760;2023-07-13T05:11:00;19.70;83.90
69082;DHT22;69029;51.986;5.760;2023-07-13T05:13:26;19.70;80.80
69082;DHT22;69029;51.986;5.760;2023-07-13T05:16:00;19.80;80.50
69082;DHT22;69029;51.986;5.760;2023-07-13T05:18:27;19.80;82.80
69082;DHT22;69029;51.986;5.760;2023-07-13T05:21:05;19.80;84.80
69082;DHT22;69029;51.986;5.760;2023-07-13T05:23:33;19.80;85.60
69082;DHT22;69029;51.986;5.760;2023-07-13T05:25:59;19.90;84.80
69082;DHT22;69029;51.986;5.760;2023-07-13T05:28:26;20.00;83.90
69082;DHT22;69029;51.986;5.760;2023-07-13T05:30:52;20.00;83.00
69082;DHT22;69029;51.986;5.760;2023-07-13T05:33:20;19.90;88.00
69082;DHT22;69029;51.986;5.760;2023-07-13T05:35:45;19.90;86.80
69082;DHT22;69029;51.986;5.760;2023-07-13T05:38:11;19.90;83.60
69082;DHT22;69029;51.986;5.760;2023-07-13T05:40:37;20.00;82.00
69082;DHT22;69029;51.986;5.760;2023-07-13T05:43:03;19.90;86.70
69082;DHT22;69029;51.986;5.760;2023-07-13T05:45:29;20.00;84.90
69082;DHT22;69029;51.986;5.760;2023-07-13T05:47:54;20.10;83.50
69082;DHT22;69029;51.986;5.760;2023-07-13T05:50:20;20.00;90.30
69082;DHT22;69029;51.986;5.760;2023-07-13T05:52:46;20.10;86.20
69082;DHT22;69029;51.986;5.760;2023-07-13T05:55:12;20.10;87.10
69082;DHT22;69029;51.986;5.760;2023-07-13T05:57:38;20.20;87.30
69082;DHT22;69029;51.986;5.760;2023-07-13T06:00:04;20.20;90.20
69082;DHT22;69029;51.986;5.760;2023-07-13T06:02:30;20.10;92.50
69082;DHT22;69029;51.986;5.760;2023-07-13T06:04:56;20.00;90.10
69082;DHT22;69029;51.986;5.760;2023-07-13T06:07:21;20.00;90.70
69082;DHT22;69029;51.986;5.760;2023-07-13T06:09:47;20.20;92.20
69082;DHT22;69029;51.986;5.760;2023-07-13T06:12:13;20.20;92.10
69082;DHT22;69029;51.986;5.760;2023-07-13T06:14:38;20.10;91.50
69082;DHT22;69029;51.986;5.760;2023-07-13T06:17:04;20.00;86.50
69082;DHT22;69029;51.986;5.760;2023-07-13T06:19:30;20.00;92.70
69082;DHT22;69029;51.986;5.760;2023-07-13T06:21:56;20.00;95.90
69082;DHT22;69029;51.986;5.760;2023-07-13T06:24:24;20.10;87.60
69082;DHT22;69029;51.986;5.760;2023-07-13T06:26:50;20.30;92.70
69082;DHT22;69029;51.986;5.760;2023-07-13T06:29:15;20.40;86.70
69082;DHT22;69029;51.986;5.760;2023-07-13T06:31:41;20.30;88.40
69082;DHT22;69029;51.986;5.760;2023-07-13T06:34:07;20.20;92.10
69082;DHT22;69029;51.986;5.760;2023-07-13T06:36:33;20.30;91.20
69082;DHT22;69029;51.986;5.760;2023-07-13T06:38:59;20.50;92.20
69082;DHT22;69029;51.986;5.760;2023-07-13T06:41:24;20.40;92.40
69082;DHT22;69029;51.986;5.760;2023-07-13T06:43:53;20.60;89.90
69082;DHT22;69029;51.986;5.760;2023-07-13T06:46:21;20.60;90.90
69082;DHT22;69029;51.986;5.760;2023-07-13T06:48:47;20.50;90.60
69082;DHT22;69029;51.986;5.760;2023-07-13T06:51:13;20.40;93.90
69082;DHT22;69029;51.986;5.760;2023-07-13T06:53:38;20.40;85.90
69082;DHT22;69029;51.986;5.760;2023-07-13T06:56:04;20.50;92.80
69082;DHT22;69029;51.986;5.760;2023-07-13T06:58:30;20.60;93.60
69082;DHT22;69029;51.986;5.760;2023-07-13T07:00:56;20.70;93.80
69082;DHT22;69029;51.986;5.760;2023-07-13T07:03:22;20.50;92.00
69082;DHT22;69029;51.986;5.760;2023-07-13T07:05:48;20.60;95.10
69082;DHT22;69029;51.986;5.760;2023-07-13T07:08:13;20.70;94.90
69082;DHT22;69029;51.986;5.760;2023-07-13T07:10:40;20.90;93.10
69082;DHT22;69029;51.986;5.760;2023-07-13T07:13:06;20.90;90.40
69082;DHT22;69029;51.986;5.760;2023-07-13T07:15:32;20.80;90.90
69082;DHT22;69029;51.986;5.760;2023-07-13T07:17:59;20.70;91.00
69082;DHT22;69029;51.986;5.760;2023-07-13T07:20:25;20.90;90.90
69082;DHT22;69029;51.986;5.760;2023-07-13T07:22:51;20.80;90.20
69082;DHT22;69029;51.986;5.760;2023-07-13T07:25:17;20.90;92.30
69082;DHT22;69029;51.986;5.760;2023-07-13T07:27:43;21.00;91.30
69082;DHT22;69029;51.986;5.760;2023-07-13T07:30:09;21.00;91.80
69082;DHT22;69029;51.986;5.760;2023-07-13T07:32:35;21.00;92.20
69082;DHT22;69029;51.986;5.760;2023-07-13T07:35:01;21.00;88.40
69082;DHT22;69029;51.986;5.760;2023-07-13T07:37:27;21.10;86.20
69082;DHT22;69029;51.986;5.760;2023-07-13T07:39:52;21.20;88.20
69082;DHT22;69029;51.986;5.760;2023-07-13T07:42:18;21.20;90.00
69082;DHT22;69029;51.986;5.760;2023-07-13T07:44:44;21.20;89.30
69082;DHT22;69029;51.986;5.760;2023-07-13T07:47:09;21.20;89.80
69082;DHT22;69029;51.986;5.760;2023-07-13T07:49:36;21.40;87.00
69082;DHT22;69029;51.986;5.760;2023-07-13T07:52:02;21.20;87.30
69082;DHT22;69029;51.986;5.760;2023-07-13T07:54:28;21.20;90.40
69082;DHT22;69029;51.986;5.760;2023-07-13T07:56:54;21.10;91.20
69082;DHT22;69029;51.986;5.760;2023-07-13T07:59:19;21.10;90.40
69082;DHT22;69029;51.986;5.760;2023-07-13T08:01:45;21.20;91.20
69082;DHT22;69029;51.986;5.760;2023-07-13T08:04:13;21.20;88.40
69082;DHT22;69029;51.986;5.760;2023-07-13T08:06:39;21.40;88.70
69082;DHT22;69029;51.986;5.760;2023-07-13T08:09:04;21.60;84.80
69082;DHT22;69029;51.986;5.760;2023-07-13T08:11:31;21.70;85.80
69082;DHT22;69029;51.986;5.760;2023-07-13T08:13:57;21.80;88.80
69082;DHT22;69029;51.986;5.760;2023-07-13T08:16:23;21.90;84.40
69082;DHT22;69029;51.986;5.760;2023-07-13T08:18:49;21.90;83.60
69082;DHT22;69029;51.986;5.760;2023-07-13T08:21:15;21.70;84.60
69082;DHT22;69029;51.986;5.760;2023-07-13T08:23:41;21.80;88.60
69082;DHT22;69029;51.986;5.760;2023-07-13T08:26:07;21.70;85.20
69082;DHT22;69029;51.986;5.760;2023-07-13T08:28:33;21.90;86.70
69082;DHT22;69029;51.986;5.760;2023-07-13T08:31:04;22.10;82.70
69082;DHT22;69029;51.986;5.760;2023-07-13T08:33:30;22.00;84.30
69082;DHT22;69029;51.986;5.760;2023-07-13T08:35:56;22.10;83.20
69082;DHT22;69029;51.986;5.760;2023-07-13T08:38:22;22.00;86.50
69082;DHT22;69029;51.986;5.760;2023-07-13T08:41:15;22.10;81.20
69082;DHT22;69029;51.986;5.760;2023-07-13T08:43:42;22.10;81.40
69082;DHT22;69029;51.986;5.760;2023-07-13T08:46:33;22.00;83.60
69082;DHT22;69029;51.986;5.760;2023-07-13T08:49:03;22.10;80.40
69082;DHT22;69029;51.986;5.760;2023-07-13T08:54:23;22.30;77.60
69082;DHT22;69029;51.986;5.760;2023-07-13T08:56:53;22.20;77.20
69082;DHT22;69029;51.986;5.760;2023-07-13T08:59:22;22.20;73.60
69082;DHT22;69029;51.986;5.760;2023-07-13T09:02:56;22.40;76.00
69082;DHT22;69029;51.986;5.760;2023-07-13T09:15:26;22.60;70.50
69082;DHT22;69029;51.986;5.760;2023-07-13T09:17:55;22.70;70.20
69082;DHT22;69029;51.986;5.760;2023-07-13T09:20:30;22.60;71.70
69082;DHT22;69029;51.986;5.760;2023-07-13T09:23:00;22.70;71.90
69082;DHT22;69029;51.986;5.760;2023-07-13T09:25:30;22.70;72.60
69082;DHT22;69029;51.986;5.760;2023-07-13T09:28:08;22.70;71.50
69082;DHT22;69029;51.986;5.760;2023-07-13T09:30:49;22.70;71.70
69082;DHT22;69029;51.986;5.760;2023-07-13T09:33:19;22.70;71.90
69082;DHT22;69029;51.986;5.760;2023-07-13T09:35:44;22.40;78.00
69082;DHT22;69029;51.986;5.760;2023-07-13T09:38:15;22.30;79.10
69082;DHT22;69029;51.986;5.760;2023-07-13T09:43:26;22.30;82.60
69082;DHT22;69029;51.986;5.760;2023-07-13T09:45:54;22.50;79.50
69082;DHT22;69029;51.986;5.760;2023-07-13T09:48:19;22.60;82.60
69082;DHT22;69029;51.986;5.760;2023-07-13T09:50:45;22.30;77.60
69082;DHT22;69029;51.986;5.760;2023-07-13T09:53:19;22.40;81.00
69082;DHT22;69029;51.986;5.760;2023-07-13T09:55:48;22.30;81.00
69082;DHT22;69029;51.986;5.760;2023-07-13T09:58:17;22.30;81.10
69082;DHT22;69029;51.986;5.760;2023-07-13T10:00:57;22.40;83.50
69082;DHT22;69029;51.986;5.760;2023-07-13T10:03:27;22.50;80.40
69082;DHT22;69029;51.986;5.760;2023-07-13T10:05:54;22.50;81.40
69082;DHT22;69029;51.986;5.760;2023-07-13T10:08:27;22.20;76.30
69082;DHT22;69029;51.986;5.760;2023-07-13T10:11:22;22.30;77.90
69082;DHT22;69029;51.986;5.760;2023-07-13T10:13:59;22.40;78.40
69082;DHT22;69029;51.986;5.760;2023-07-13T10:16:28;22.50;75.40
69082;DHT22;69029;51.986;5.760;2023-07-13T10:19:20;22.60;73.70
69082;DHT22;69029;51.986;5.760;2023-07-13T10:21:57;22.60;74.30
69082;DHT22;69029;51.986;5.760;2023-07-13T10:24:33;22.70;73.50
69082;DHT22;69029;51.986;5.760;2023-07-13T10:29:47;22.60;77.60
69082;DHT22;69029;51.986;5.760;2023-07-13T10:32:14;22.80;79.60
69082;DHT22;69029;51.986;5.760;2023-07-13T10:34:42;22.80;76.30
69082;DHT22;69029;51.986;5.760;2023-07-13T10:37:18;22.90;75.00
69082;DHT22;69029;51.986;5.760;2023-07-13T10:39:46;23.10;76.10
69082;DHT22;69029;51.986;5.760;2023-07-13T10:42:15;23.20;74.10
69082;DHT22;69029;51.986;5.760;2023-07-13T10:44:44;23.30;73.30
69082;DHT22;69029;51.986;5.760;2023-07-13T10:47:14;23.50;72.20
69082;DHT22;69029;51.986;5.760;2023-07-13T10:49:41;23.70;72.50
69082;DHT22;69029;51.986;5.760;2023-07-13T10:52:45;23.80;72.50
69082;DHT22;69029;51.986;5.760;2023-07-13T10:58:14;23.90;65.80
69082;DHT22;69029;51.986;5.760;2023-07-13T11:03:29;24.00;64.20
69082;DHT22;69029;51.986;5.760;2023-07-13T11:13:58;24.10;64.20
69082;DHT22;69029;51.986;5.760;2023-07-13T11:21:29;24.10;74.00
69082;DHT22;69029;51.986;5.760;2023-07-13T11:24:29;24.30;71.10
69082;DHT22;69029;51.986;5.760;2023-07-13T11:27:38;24.30;68.10
69082;DHT22;69029;51.986;5.760;2023-07-13T11:35:34;25.00;65.60
69082;DHT22;69029;51.986;5.760;2023-07-13T11:38:03;25.20;64.10
69082;DHT22;69029;51.986;5.760;2023-07-13T11:40:35;25.40;64.90
69082;DHT22;69029;51.986;5.760;2023-07-13T11:43:02;25.30;63.80
69082;DHT22;69029;51.986;5.760;2023-07-13T11:45:28;25.20;62.00
69082;DHT22;69029;51.986;5.760;2023-07-13T11:47:54;25.40;64.10
69082;DHT22;69029;51.986;5.760;2023-07-13T11:50:24;25.70;61.10
69082;DHT22;69029;51.986;5.760;2023-07-13T11:52:51;25.40;59.00
69082;DHT22;69029;51.986;5.760;2023-07-13T11:55:21;25.20;61.20
69082;DHT22;69029;51.986;5.760;2023-07-13T11:57:58;25.10;62.00
69082;DHT22;69029;51.986;5.760;2023-07-13T12:00:32;25.10;65.80
69082;DHT22;69029;51.986;5.760;2023-07-13T12:02:59;25.20;62.20
69082;DHT22;69029;51.986;5.760;2023-07-13T12:05:26;25.50;61.60
69082;DHT22;69029;51.986;5.760;2023-07-13T12:07:52;25.60;58.70
69082;DHT22;69029;51.986;5.760;2023-07-13T12:10:29;25.70;55.00
69082;DHT22;69029;51.986;5.760;2023-07-13T12:15:45;26.80;53.70
69082;DHT22;69029;51.986;5.760;2023-07-13T12:18:22;27.20;54.80
69082;DHT22;69029;51.986;5.760;2023-07-13T12:20:50;27.30;53.20
69082;DHT22;69029;51.986;5.760;2023-07-13T12:23:25;27.50;51.30
69082;DHT22;69029;51.986;5.760;2023-07-13T12:25:52;27.20;52.50
69082;DHT22;69029;51.986;5.760;2023-07-13T12:31:06;27.00;56.80
69082;DHT22;69029;51.986;5.760;2023-07-13T12:33:33;27.10;56.60
69082;DHT22;69029;51.986;5.760;2023-07-13T12:36:03;27.20;55.60
69082;DHT22;69029;51.986;5.760;2023-07-13T12:38:32;27.40;56.10
69082;DHT22;69029;51.986;5.760;2023-07-13T12:40:58;27.30;53.10
69082;DHT22;69029;51.986;5.760;2023-07-13T12:43:24;27.10;54.10
69082;DHT22;69029;51.986;5.760;2023-07-13T12:46:20;27.20;50.30
69082;DHT22;69029;51.986;5.760;2023-07-13T12:48:53;27.40;53.30
69082;DHT22;69029;51.986;5.760;2023-07-13T12:51:22;27.80;48.90
69082;DHT22;69029;51.986;5.760;2023-07-13T12:53:57;28.20;49.10
69082;DHT22;69029;51.986;5.760;2023-07-13T12:56:26;28.90;46.60
69082;DHT22;69029;51.986;5.760;2023-07-13T12:58:58;29.40;50.90
69082;DHT22;69029;51.986;5.760;2023-07-13T13:01:27;30.00;48.50
69082;DHT22;69029;51.986;5.760;2023-07-13T13:03:54;30.40;41.00
69082;DHT22;69029;51.986;5.760;2023-07-13T13:06:27;29.90;46.10
69082;DHT22;69029;51.986;5.760;2023-07-13T13:08:55;30.10;44.20
69082;DHT22;69029;51.986;5.760;2023-07-13T13:11:22;30.20;44.40
69082;DHT22;69029;51.986;5.760;2023-07-13T13:13:49;30.60;45.00
69082;DHT22;69029;51.986;5.760;2023-07-13T13:16:22;31.00;42.20
69082;DHT22;69029;51.986;5.760;2023-07-13T13:18:50;31.20;39.60
69082;DHT22;69029;51.986;5.760;2023-07-13T13:21:17;31.40;40.50
69082;DHT22;69029;51.986;5.760;2023-07-13T13:23:42;31.80;44.80
69082;DHT22;69029;51.986;5.760;2023-07-13T13:26:11;31.90;38.30
69082;DHT22;69029;51.986;5.760;2023-07-13T13:28:37;32.00;40.50
69082;DHT22;69029;51.986;5.760;2023-07-13T13:31:03;32.00;39.80
69082;DHT22;69029;51.986;5.760;2023-07-13T13:33:29;31.90;37.90
69082;DHT22;69029;51.986;5.760;2023-07-13T13:35:56;32.10;38.80
69082;DHT22;69029;51.986;5.760;2023-07-13T13:38:26;32.60;39.00
69082;DHT22;69029;51.986;5.760;2023-07-13T13:40:52;32.70;38.70
69082;DHT22;69029;51.986;5.760;2023-07-13T13:43:26;33.20;39.60
69082;DHT22;69029;51.986;5.760;2023-07-13T13:45:56;33.50;35.40
69082;DHT22;69029;51.986;5.760;2023-07-13T13:48:33;33.50;36.80
69082;DHT22;69029;51.986;5.760;2023-07-13T13:51:00;33.80;39.20
69082;DHT22;69029;51.986;5.760;2023-07-13T13:53:26;33.80;35.60
69082;DHT22;69029;51.986;5.760;2023-07-13T13:55:52;33.70;35.20
69082;DHT22;69029;51.986;5.760;2023-07-13T13:58:19;34.00;34.00
69082;DHT22;69029;51.986;5.760;2023-07-13T14:00:45;34.20;33.10
69082;DHT22;69029;51.986;5.760;2023-07-13T14:03:17;33.90;35.30
69082;DHT22;69029;51.986;5.760;2023-07-13T14:05:45;33.80;35.90
69082;DHT22;69029;51.986;5.760;2023-07-13T14:08:20;33.90;35.50
69082;DHT22;69029;51.986;5.760;2023-07-13T14:10:51;34.00;35.30
69082;DHT22;69029;51.986;5.760;2023-07-13T14:13:21;34.10;33.50
69082;DHT22;69029;51.986;5.760;2023-07-13T14:15:47;34.30;36.00
69082;DHT22;69029;51.986;5.760;2023-07-13T14:18:14;34.20;36.10
69082;DHT22;69029;51.986;5.760;2023-07-13T14:20:47;34.00;35.90
69082;DHT22;69029;51.986;5.760;2023-07-13T14:23:14;33.90;33.30
69082;DHT22;69029;51.986;5.760;2023-07-13T14:25:47;33.90;32.90
69082;DHT22;69029;51.986;5.760;2023-07-13T14:28:25;33.60;32.50
69082;DHT22;69029;51.986;5.760;2023-07-13T14:30:52;33.20;34.20
69082;DHT22;69029;51.986;5.760;2023-07-13T14:33:18;33.30;33.40
69082;DHT22;69029;51.986;5.760;2023-07-13T14:35:43;33.10;33.20
69082;DHT22;69029;51.986;5.760;2023-07-13T14:38:15;33.00;32.60
69082;DHT22;69029;51.986;5.760;2023-07-13T14:40:42;33.30;34.00
69082;DHT22;69029;51.986;5.760;2023-07-13T14:43:11;33.10;35.30
69082;DHT22;69029;51.986;5.760;2023-07-13T14:45:40;32.80;33.30
69082;DHT22;69029;51.986;5.760;2023-07-13T14:48:21;32.30;34.50
69082;DHT22;69029;51.986;5.760;2023-07-13T14:50:56;32.10;34.60
69082;DHT22;69029;51.986;5.760;2023-07-13T14:53:24;31.80;34.60
69082;DHT22;69029;51.986;5.760;2023-07-13T14:55:50;31.60;34.50
69082;DHT22;69029;51.986;5.760;2023-07-13T14:58:17;31.40;35.30
69082;DHT22;69029;51.986;5.760;2023-07-13T15:00:43;31.20;36.50
69082;DHT22;69029;51.986;5.760;2023-07-13T15:03:23;30.80;34.90
69082;DHT22;69029;51.986;5.760;2023-07-13T15:05:50;30.50;36.80
69082;DHT22;69029;51.986;5.760;2023-07-13T15:08:17;30.30;36.90
69082;DHT22;69029;51.986;5.760;2023-07-13T15:10:42;30.30;37.70
69082;DHT22;69029;51.986;5.760;2023-07-13T15:13:17;30.10;37.20
69082;DHT22;69029;51.986;5.760;2023-07-13T15:15:49;29.90;36.90
69082;DHT22;69029;51.986;5.760;2023-07-13T15:18:16;29.80;37.40
69082;DHT22;69029;51.986;5.760;2023-07-13T15:20:44;29.80;37.60
69082;DHT22;69029;51.986;5.760;2023-07-13T15:23:12;29.60;37.30
69082;DHT22;69029;51.986;5.760;2023-07-13T15:25:39;29.30;37.20
69082;DHT22;69029;51.986;5.760;2023-07-13T15:28:05;29.10;37.60
69082;DHT22;69029;51.986;5.760;2023-07-13T15:30:42;29.00;38.80
69082;DHT22;69029;51.986;5.760;2023-07-13T15:33:24;28.90;38.60
69082;DHT22;69029;51.986;5.760;2023-07-13T15:35:51;28.60;38.60
69082;DHT22;69029;51.986;5.760;2023-07-13T15:38:31;28.00;38.70
69082;DHT22;69029;51.986;5.760;2023-07-13T15:40:58;28.00;39.50
69082;DHT22;69029;51.986;5.760;2023-07-13T15:43:25;27.80;40.10
69082;DHT22;69029;51.986;5.760;2023-07-13T15:45:51;27.60;40.40
69082;DHT22;69029;51.986;5.760;2023-07-13T15:48:22;27.50;40.80
69082;DHT22;69029;51.986;5.760;2023-07-13T15:50:53;27.40;40.70
69082;DHT22;69029;51.986;5.760;2023-07-13T15:53:25;27.50;40.70
69082;DHT22;69029;51.986;5.760;2023-07-13T15:55:55;27.90;40.70
69082;DHT22;69029;51.986;5.760;2023-07-13T15:58:21;27.90;42.00
69082;DHT22;69029;51.986;5.760;2023-07-13T16:00:47;27.90;43.00
69082;DHT22;69029;51.986;5.760;2023-07-13T16:03:17;27.90;43.20
69082;DHT22;69029;51.986;5.760;2023-07-13T16:05:42;27.90;44.10
69082;DHT22;69029;51.986;5.760;2023-07-13T16:08:27;27.90;44.10
69082;DHT22;69029;51.986;5.760;2023-07-13T16:10:54;27.80;44.90
69082;DHT22;69029;51.986;5.760;2023-07-13T16:13:21;27.70;45.10
69082;DHT22;69029;51.986;5.760;2023-07-13T16:15:50;27.90;45.20
69082;DHT22;69029;51.986;5.760;2023-07-13T16:18:15;28.00;44.50
69082;DHT22;69029;51.986;5.760;2023-07-13T16:20:46;28.40;44.30
69082;DHT22;69029;51.986;5.760;2023-07-13T16:23:13;28.90;43.30
69082;DHT22;69029;51.986;5.760;2023-07-13T16:25:40;29.40;42.80
69082;DHT22;69029;51.986;5.760;2023-07-13T16:28:08;29.60;42.10